EGBJ/GLO METAR and TAF weather

Enter ICAO airport designator
Station Type Date Time Source
EGBJ METAR 2024/02/26 18:20 UTC NOAA

EGBJ 261820Z 01004KT 9999 SCT035 07/02 Q1019


Station Type Date Time Source
EGBJ Decoded METAR 2024/02/26 18:20 UTC NOAA

Staverton Private , United Kingdom (EGBJ) 51-54N 002-10W
Feb 26, 2024 - 01:20 PM EST / 2024.02.26 1820 UTC
Wind: from the N (010 degrees) at 5 MPH (4 KT):0
Visibility: greater than 7 mile(s):0
Sky conditions: partly cloudy
Temperature: 44 F (7 C)
Dew Point: 35 F (2 C)
Relative Humidity: 70%
Pressure (altimeter): 30.09 in. Hg (1019 hPa)
ob: EGBJ 261820Z 01004KT 9999 SCT035 07/02 Q1019
cycle: 18

Station Type Date Time Source
EGBJ TAF UTC NOAA

Error!

Example: see airport list